Louise, Texas
Current Conditions -  °F | °C
As of 7:15 AM on Thursday 30 Oct 2014 (Local Time) from KARM Reporting Station
Broken Clouds Broken Clouds  
Wind Chill: 61°   Ceiling: 1700
Heat Index: 61°   Visibility: 10mi
Dew Point: 58°   Wind: 3mph
Humidity: 89%   Direction: 40°NE
Pressure: 30.11"   Gusts: NA
Location:  29.11°N, 96.4°W
Report Text: KARM 301215Z AUTO 04003KT 10SM BKN017 BKN060 16/14 A3011 RMK AO2 T01600142
Loading
Personal Weather Stations






























Interactive Weather Map
Tropical Storm Tracking
New forecast layout! Learn more

10-Day Weather Forecast

Advertisements
Track Severe Weather on mobile